createdAt,value
2018-02-25T00:00:21.214Z,-1.00
2018-02-25T00:02:49.422Z,-1.10
2018-02-25T00:05:16.878Z,-1.10
2018-02-25T00:07:44.386Z,-1.20
2018-02-25T00:10:11.840Z,-1.20
2018-02-25T00:12:39.298Z,-1.20
2018-02-25T00:15:06.742Z,-1.30
2018-02-25T00:17:34.197Z,-1.30
2018-02-25T00:20:01.647Z,-1.30
2018-02-25T00:22:29.922Z,-1.30
2018-02-25T00:24:57.463Z,-1.30
2018-02-25T00:27:25.647Z,-1.30
2018-02-25T00:29:53.118Z,-1.30
2018-02-25T00:32:20.580Z,-1.30
2018-02-25T00:34:48.028Z,-1.30
2018-02-25T00:37:15.515Z,-1.40
2018-02-25T00:39:42.952Z,-1.50
2018-02-25T00:42:10.432Z,-1.50
2018-02-25T00:44:38.670Z,-1.60
2018-02-25T00:47:06.113Z,-1.50
2018-02-25T00:49:33.573Z,-1.50
2018-02-25T00:52:01.032Z,-1.60
2018-02-25T00:54:28.567Z,-1.60
2018-02-25T00:56:56.032Z,-1.60
2018-02-25T00:59:23.482Z,-1.60
2018-02-25T01:01:50.939Z,-1.70
2018-02-25T01:04:18.378Z,-1.60
2018-02-25T01:06:45.891Z,-1.70
2018-02-25T01:09:13.329Z,-1.70
2018-02-25T01:11:40.809Z,-1.70
2018-02-25T01:14:08.265Z,-1.70
2018-02-25T01:16:35.717Z,-1.70
2018-02-25T01:19:03.170Z,-1.70
2018-02-25T01:21:30.621Z,-1.70
2018-02-25T01:23:58.866Z,-1.80
2018-02-25T01:26:26.333Z,-1.80
2018-02-25T01:28:53.798Z,-1.80
2018-02-25T01:31:21.276Z,-1.80
2018-02-25T01:33:48.736Z,-1.80
2018-02-25T01:36:16.209Z,-1.90
2018-02-25T01:38:44.459Z,-1.90
2018-02-25T01:41:11.869Z,-2.00
2018-02-25T01:43:39.361Z,-1.90
2018-02-25T01:46:06.812Z,-1.90
2018-02-25T01:48:34.269Z,-1.90
2018-02-25T01:51:03.533Z,-1.90
2018-02-25T01:53:30.969Z,-1.90
2018-02-25T01:55:58.417Z,-2.00
2018-02-25T01:58:25.870Z,-2.00
2018-02-25T02:00:53.329Z,-2.00
2018-02-25T02:03:21.289Z,-2.10
2018-02-25T02:05:48.756Z,-2.10
2018-02-25T02:08:16.225Z,-2.10
2018-02-25T02:10:44.450Z,-2.00
2018-02-25T02:13:11.920Z,-2.10
2018-02-25T02:15:39.396Z,-2.10
2018-02-25T02:18:06.841Z,-2.10
2018-02-25T02:20:34.305Z,-2.10
2018-02-25T02:23:05.294Z,-2.10
2018-02-25T02:25:32.741Z,-2.20
2018-02-25T02:28:00.201Z,-2.10
2018-02-25T02:30:27.652Z,-2.20
2018-02-25T02:32:55.143Z,-2.20
2018-02-25T02:35:22.633Z,-2.20
2018-02-25T02:37:50.085Z,-2.30
2018-02-25T02:40:17.555Z,-2.30
2018-02-25T02:42:46.549Z,-2.30
2018-02-25T02:45:14.796Z,-2.30
2018-02-25T02:47:42.276Z,-2.40
2018-02-25T02:50:10.509Z,-2.40
2018-02-25T02:52:37.962Z,-2.50
2018-02-25T02:55:05.434Z,-2.40
2018-02-25T02:57:32.893Z,-2.40
2018-02-25T03:00:00.349Z,-2.30
2018-02-25T03:02:27.821Z,-2.30
2018-02-25T03:04:55.843Z,-2.30
2018-02-25T03:07:23.329Z,-2.30
2018-02-25T03:09:51.702Z,-2.40
2018-02-25T03:12:19.949Z,-2.40
2018-02-25T03:14:47.413Z,-2.40
2018-02-25T03:17:14.966Z,-2.50
2018-02-25T03:19:42.413Z,-2.70
2018-02-25T03:22:09.884Z,-2.70
2018-02-25T03:24:37.340Z,-2.80
2018-02-25T03:27:04.830Z,-2.70
2018-02-25T03:29:32.285Z,-2.60
2018-02-25T03:31:59.745Z,-2.60
2018-02-25T03:34:27.213Z,-2.60
2018-02-25T03:36:54.688Z,-2.70
2018-02-25T03:39:22.942Z,-2.80
2018-02-25T03:41:50.382Z,-2.90
2018-02-25T03:44:17.828Z,-2.90
2018-02-25T03:46:45.297Z,-2.90
2018-02-25T03:49:12.778Z,-2.90
2018-02-25T03:51:40.248Z,-2.90
2018-02-25T03:54:08.473Z,-2.90
2018-02-25T03:56:35.947Z,-3.00
2018-02-25T03:59:03.445Z,-3.00
2018-02-25T04:01:31.744Z,-2.90
2018-02-25T04:03:59.194Z,-2.90
2018-02-25T04:06:26.647Z,-3.00
2018-02-25T04:08:54.109Z,-3.00
2018-02-25T04:11:21.586Z,-3.00
2018-02-25T04:13:49.053Z,-3.00
2018-02-25T04:16:16.503Z,-3.00
2018-02-25T04:18:43.968Z,-3.00
2018-02-25T04:21:11.440Z,-3.00
2018-02-25T04:23:38.912Z,-3.00
2018-02-25T04:26:07.212Z,-3.20
2018-02-25T04:28:34.677Z,-3.20
2018-02-25T04:31:02.168Z,-3.10
2018-02-25T04:33:29.631Z,-3.20
2018-02-25T04:35:57.078Z,-3.10
2018-02-25T04:38:24.516Z,-3.00
2018-02-25T04:40:51.974Z,-3.10
2018-02-25T04:43:19.441Z,-3.20
2018-02-25T04:45:46.898Z,-3.20
2018-02-25T04:48:14.384Z,-3.20
2018-02-25T04:50:41.872Z,-3.30
2018-02-25T04:53:10.124Z,-3.30
2018-02-25T04:55:37.626Z,-3.30
2018-02-25T04:58:05.079Z,-3.30
2018-02-25T05:00:32.529Z,-3.40
2018-02-25T05:03:00.091Z,-3.30
2018-02-25T05:05:27.576Z,-3.30
2018-02-25T05:07:55.069Z,-3.40
2018-02-25T05:10:23.294Z,-3.30
2018-02-25T05:12:50.796Z,-3.40
2018-02-25T05:15:18.241Z,-3.40
2018-02-25T05:17:45.700Z,-3.50
2018-02-25T05:20:13.180Z,-3.50
2018-02-25T05:22:41.408Z,-3.60
2018-02-25T05:25:08.861Z,-3.60
2018-02-25T05:27:36.303Z,-3.50
2018-02-25T05:30:03.776Z,-3.50
2018-02-25T05:32:31.248Z,-3.60
2018-02-25T05:34:58.717Z,-3.60
2018-02-25T05:37:26.164Z,-3.70
2018-02-25T05:39:53.647Z,-3.70
2018-02-25T05:42:21.904Z,-3.80
2018-02-25T05:44:49.349Z,-3.80
2018-02-25T05:47:16.824Z,-3.80
2018-02-25T05:49:44.325Z,-3.80
2018-02-25T05:52:11.769Z,-3.80
2018-02-25T05:54:39.224Z,-3.90
2018-02-25T05:57:06.672Z,-3.80
2018-02-25T05:59:34.149Z,-3.90
2018-02-25T06:02:01.630Z,-3.80
2018-02-25T06:04:29.095Z,-3.80
2018-02-25T06:06:56.556Z,-3.90
2018-02-25T06:09:24.045Z,-3.90
2018-02-25T06:11:52.286Z,-4.00
2018-02-25T06:14:19.761Z,-4.00
2018-02-25T06:16:47.237Z,-4.00
2018-02-25T06:19:15.469Z,-4.10
2018-02-25T06:21:42.966Z,-4.10
2018-02-25T06:24:11.189Z,-4.00
2018-02-25T06:26:38.664Z,-4.10
2018-02-25T06:29:06.141Z,-4.10
2018-02-25T06:31:33.617Z,-4.00
2018-02-25T06:34:01.870Z,-3.80
2018-02-25T06:36:29.330Z,-3.90
2018-02-25T06:38:56.788Z,-3.90
2018-02-25T06:41:24.266Z,-4.00
2018-02-25T06:43:52.503Z,-4.00
2018-02-25T06:46:19.966Z,-4.00
2018-02-25T06:48:47.448Z,-3.90
2018-02-25T06:51:15.676Z,-3.90
2018-02-25T06:53:43.134Z,-4.00
2018-02-25T06:56:10.584Z,-4.00
2018-02-25T06:58:38.080Z,-4.10
2018-02-25T07:01:06.341Z,-3.80
2018-02-25T07:03:33.787Z,-3.50
2018-02-25T07:06:01.257Z,-3.30
2018-02-25T07:08:28.710Z,-3.00
2018-02-25T07:10:56.190Z,-2.80
2018-02-25T07:13:24.443Z,-2.30
2018-02-25T07:15:51.889Z,-2.30
2018-02-25T07:18:19.352Z,-1.90
2018-02-25T07:20:46.800Z,-1.80
2018-02-25T07:23:14.250Z,-1.60
2018-02-25T07:25:41.703Z,-1.40
2018-02-25T07:28:09.177Z,-1.20
2018-02-25T07:30:36.649Z,-0.90
2018-02-25T07:33:04.157Z,-0.90
2018-02-25T07:35:31.613Z,-0.90
2018-02-25T07:37:59.052Z,-0.60
2018-02-25T07:40:26.516Z,-0.70
2018-02-25T07:42:53.994Z,-0.60
2018-02-25T07:45:21.503Z,-0.50
2018-02-25T07:47:49.735Z,-0.30
2018-02-25T07:50:17.177Z,-0.20
2018-02-25T07:52:44.636Z,0.20
2018-02-25T07:55:12.126Z,0.00
2018-02-25T07:57:39.595Z,-0.20
2018-02-25T08:00:07.833Z,-0.10
2018-02-25T08:02:35.285Z,-0.10
2018-02-25T08:05:02.749Z,0.10
2018-02-25T08:07:30.222Z,0.70
2018-02-25T08:09:57.689Z,1.00
2018-02-25T08:12:25.149Z,1.10
2018-02-25T08:14:52.621Z,0.70
2018-02-25T08:17:20.866Z,1.40
2018-02-25T08:19:48.305Z,1.40
2018-02-25T08:22:15.777Z,1.20
2018-02-25T08:24:43.230Z,0.90
2018-02-25T08:27:10.891Z,1.30
2018-02-25T08:29:38.400Z,1.20
2018-02-25T08:32:05.845Z,1.40
2018-02-25T08:34:34.105Z,1.40
2018-02-25T08:37:01.598Z,1.40
2018-02-25T08:39:29.062Z,1.50
2018-02-25T08:41:56.529Z,1.70
2018-02-25T08:44:23.965Z,2.00
2018-02-25T08:46:51.421Z,2.00
2018-02-25T08:49:18.864Z,2.50
2018-02-25T08:51:46.334Z,2.40
2018-02-25T08:54:13.869Z,2.30
2018-02-25T08:56:41.320Z,2.80
2018-02-25T08:59:09.614Z,3.00
2018-02-25T09:01:37.820Z,3.20
2018-02-25T09:04:05.282Z,3.10
2018-02-25T09:06:32.758Z,3.40
2018-02-25T09:09:00.204Z,3.50
2018-02-25T09:11:27.700Z,3.60
2018-02-25T09:13:55.937Z,3.20
2018-02-25T09:16:23.413Z,3.20
2018-02-25T09:18:50.853Z,3.30
2018-02-25T09:21:18.318Z,3.80
2018-02-25T09:23:45.786Z,3.20
2018-02-25T09:26:13.257Z,3.50
2018-02-25T09:28:41.489Z,3.00
2018-02-25T09:31:08.948Z,3.00
2018-02-25T09:33:36.425Z,3.20
2018-02-25T09:36:03.888Z,3.30
2018-02-25T09:38:31.348Z,3.10
2018-02-25T09:40:58.810Z,3.10
2018-02-25T09:43:27.027Z,4.10
2018-02-25T09:45:54.473Z,4.10
2018-02-25T09:48:21.938Z,4.70
2018-02-25T09:50:49.434Z,5.20
2018-02-25T09:53:16.911Z,5.20
2018-02-25T09:55:45.120Z,5.30
2018-02-25T09:58:12.553Z,5.30
2018-02-25T10:00:40.814Z,6.70
2018-02-25T10:03:08.286Z,6.70
2018-02-25T10:05:36.494Z,7.20
2018-02-25T10:08:03.957Z,7.20
2018-02-25T10:10:31.412Z,7.40
2018-02-25T10:12:58.892Z,7.80
2018-02-25T10:15:26.354Z,7.90
2018-02-25T10:17:53.850Z,7.60
2018-02-25T10:20:22.057Z,8.50
2018-02-25T10:22:49.535Z,8.40
2018-02-25T10:25:17.021Z,8.00
2018-02-25T10:27:45.227Z,8.50
2018-02-25T10:30:12.685Z,8.50
2018-02-25T10:32:40.161Z,8.60
2018-02-25T10:35:07.610Z,8.60
2018-02-25T10:37:35.089Z,8.50
2018-02-25T10:40:02.531Z,8.70
2018-02-25T10:42:30.628Z,8.80
2018-02-25T10:44:58.079Z,9.90
2018-02-25T10:47:25.517Z,10.50
2018-02-25T10:49:52.990Z,10.10
2018-02-25T10:52:20.470Z,9.00
2018-02-25T10:54:47.937Z,8.50
2018-02-25T10:57:16.175Z,9.90
2018-02-25T10:59:43.642Z,9.90
2018-02-25T11:02:11.114Z,9.80
2018-02-25T11:04:39.352Z,9.50
2018-02-25T11:07:06.786Z,9.50
2018-02-25T11:09:34.274Z,9.20
2018-02-25T11:12:01.741Z,9.40
2018-02-25T11:14:29.201Z,9.30
2018-02-25T11:16:56.943Z,9.10
2018-02-25T11:19:24.408Z,9.10
2018-02-25T11:21:51.884Z,9.20
2018-02-25T11:24:19.344Z,9.50
2018-02-25T11:26:46.795Z,9.60
2018-02-25T11:29:14.875Z,9.70
2018-02-25T11:31:42.413Z,10.10
2018-02-25T11:34:10.576Z,11.40
2018-02-25T11:36:38.066Z,11.30
2018-02-25T11:39:05.487Z,11.00
2018-02-25T11:41:32.988Z,11.10
2018-02-25T11:44:01.201Z,10.60
2018-02-25T11:46:28.689Z,10.60
2018-02-25T11:48:56.140Z,10.40
2018-02-25T11:51:23.612Z,10.80
2018-02-25T11:53:51.030Z,11.80
2018-02-25T11:56:18.521Z,12.10
2018-02-25T11:58:45.968Z,11.40
2018-02-25T12:01:13.438Z,10.60
2018-02-25T12:03:40.900Z,10.80
2018-02-25T12:06:08.362Z,11.20
2018-02-25T12:08:35.805Z,11.60
2018-02-25T12:11:03.270Z,11.90
2018-02-25T12:13:30.736Z,11.20
2018-02-25T12:15:58.945Z,11.70
2018-02-25T12:18:26.401Z,11.70
2018-02-25T12:20:53.849Z,12.30
2018-02-25T12:23:21.346Z,12.00
2018-02-25T12:25:48.809Z,12.40
2018-02-25T12:28:16.257Z,11.10
2018-02-25T12:30:43.729Z,10.90
2018-02-25T12:33:11.187Z,11.10
2018-02-25T12:35:38.703Z,11.10
2018-02-25T12:38:06.176Z,11.20
2018-02-25T12:40:33.627Z,11.50
2018-02-25T12:43:01.084Z,11.30
2018-02-25T12:45:28.546Z,11.70
2018-02-25T12:47:55.998Z,12.00
2018-02-25T12:50:23.449Z,12.80
2018-02-25T12:52:50.944Z,12.50
2018-02-25T12:55:18.365Z,12.70
2018-02-25T12:57:45.821Z,11.80
2018-02-25T13:00:13.266Z,11.50
2018-02-25T13:02:40.721Z,12.10
2018-02-25T13:05:08.173Z,11.90
2018-02-25T13:07:35.641Z,12.10
2018-02-25T13:10:03.081Z,12.30
2018-02-25T13:12:30.554Z,12.50
2018-02-25T13:14:58.037Z,11.90
2018-02-25T13:17:25.512Z,11.10
2018-02-25T13:19:52.972Z,11.00
2018-02-25T13:22:20.449Z,11.70
2018-02-25T13:24:48.652Z,11.00
2018-02-25T13:27:16.118Z,11.00
2018-02-25T13:29:43.606Z,10.70
2018-02-25T13:32:11.077Z,11.30
2018-02-25T13:34:39.326Z,11.70
2018-02-25T13:37:06.777Z,11.70
2018-02-25T13:39:34.232Z,12.60
2018-02-25T13:42:01.721Z,12.30
2018-02-25T13:44:29.173Z,11.40
2018-02-25T13:46:56.676Z,11.80
2018-02-25T13:49:24.170Z,12.20
2018-02-25T13:51:51.622Z,12.30
2018-02-25T13:54:19.828Z,13.30
2018-02-25T13:56:48.070Z,13.30
2018-02-25T13:59:15.545Z,13.30
2018-02-25T14:01:42.993Z,13.20
2018-02-25T14:04:10.461Z,14.00
2018-02-25T14:06:37.910Z,13.30
2018-02-25T14:09:05.441Z,13.50
2018-02-25T14:11:32.910Z,14.70
2018-02-25T14:14:00.789Z,15.40
2018-02-25T14:16:28.237Z,16.80
2018-02-25T14:18:55.730Z,17.20
2018-02-25T14:21:23.976Z,17.00
2018-02-25T14:23:52.177Z,17.70
2018-02-25T14:26:20.391Z,16.90
2018-02-25T14:28:47.850Z,16.90
2018-02-25T14:31:15.331Z,15.50
2018-02-25T14:33:42.803Z,13.50
2018-02-25T14:36:11.062Z,8.70
2018-02-25T14:38:38.522Z,8.60
2018-02-25T14:41:05.958Z,8.40
2018-02-25T14:43:33.424Z,7.70
2018-02-25T14:46:00.880Z,7.50
2018-02-25T14:48:29.124Z,7.30
2018-02-25T14:50:56.582Z,7.30
2018-02-25T14:53:24.091Z,7.00
2018-02-25T14:55:51.520Z,6.80
2018-02-25T14:58:18.975Z,6.40
2018-02-25T15:00:46.515Z,5.90
2018-02-25T15:03:14.024Z,5.70
2018-02-25T15:05:41.498Z,5.50
2018-02-25T15:08:09.745Z,4.90
2018-02-25T15:10:37.232Z,4.90
2018-02-25T15:13:05.463Z,4.70
2018-02-25T15:15:32.928Z,4.70
2018-02-25T15:18:00.368Z,4.70
2018-02-25T15:20:27.861Z,4.80
2018-02-25T15:22:55.344Z,5.00
2018-02-25T15:25:22.814Z,4.80
2018-02-25T15:27:50.261Z,4.70
2018-02-25T15:30:17.755Z,4.60
2018-02-25T15:32:45.230Z,4.70
2018-02-25T15:35:12.693Z,4.60
2018-02-25T15:37:40.160Z,4.20
2018-02-25T15:40:07.618Z,4.20
2018-02-25T15:42:35.092Z,4.30
2018-02-25T15:45:03.311Z,4.20
2018-02-25T15:47:30.748Z,4.20
2018-02-25T15:49:58.216Z,4.00
2018-02-25T15:52:25.671Z,3.70
2018-02-25T15:54:53.123Z,3.70
2018-02-25T15:57:20.578Z,3.50
2018-02-25T15:59:48.044Z,3.60
2018-02-25T16:02:15.489Z,3.70
2018-02-25T16:04:42.910Z,3.70
2018-02-25T16:07:11.131Z,3.40
2018-02-25T16:09:38.581Z,3.30
2018-02-25T16:12:06.029Z,3.40
2018-02-25T16:14:33.512Z,3.20
2018-02-25T16:17:00.947Z,3.20
2018-02-25T16:19:28.408Z,3.20
2018-02-25T16:21:55.893Z,3.20
2018-02-25T16:24:23.359Z,3.20
2018-02-25T16:26:50.818Z,3.10
2018-02-25T16:29:18.285Z,2.90
2018-02-25T16:31:46.529Z,2.60
2018-02-25T16:34:13.977Z,2.60
2018-02-25T16:36:41.547Z,2.70
2018-02-25T16:39:08.996Z,2.70
2018-02-25T16:41:36.453Z,2.70
2018-02-25T16:44:03.945Z,2.60
2018-02-25T16:46:32.172Z,2.60
2018-02-25T16:48:59.640Z,2.50
2018-02-25T16:51:27.101Z,2.60
2018-02-25T16:53:54.562Z,2.40
2018-02-25T16:56:22.023Z,2.30
2018-02-25T16:58:50.393Z,2.30
2018-02-25T17:01:17.951Z,2.30
2018-02-25T17:03:45.458Z,2.20
2018-02-25T17:06:13.811Z,2.20
2018-02-25T17:08:41.346Z,2.00
2018-02-25T17:11:09.120Z,1.90
2018-02-25T17:13:36.604Z,1.80
2018-02-25T17:16:04.808Z,1.60
2018-02-25T17:18:32.268Z,1.60
2018-02-25T17:20:59.725Z,1.60
2018-02-25T17:23:27.192Z,1.50
2018-02-25T17:25:54.696Z,1.40
2018-02-25T17:28:22.144Z,1.50
2018-02-25T17:30:49.591Z,1.40
2018-02-25T17:33:17.079Z,1.30
2018-02-25T17:35:45.335Z,1.20
2018-02-25T17:38:12.922Z,1.20
2018-02-25T17:40:41.001Z,1.20
2018-02-25T17:43:08.686Z,1.10
2018-02-25T17:45:36.315Z,1.10
2018-02-25T17:48:03.823Z,0.90
2018-02-25T17:50:31.394Z,0.90
2018-02-25T17:52:59.190Z,1.00
2018-02-25T17:55:33.566Z,1.00
2018-02-25T17:57:55.905Z,1.00
2018-02-25T18:00:23.429Z,0.90
2018-02-25T18:02:50.889Z,1.00
2018-02-25T18:05:18.340Z,0.90
2018-02-25T18:07:45.820Z,0.90
2018-02-25T18:10:13.285Z,0.70
2018-02-25T18:12:40.752Z,0.70
2018-02-25T18:15:08.229Z,0.80
2018-02-25T18:17:36.487Z,0.60
2018-02-25T18:20:03.952Z,0.60
2018-02-25T18:22:31.413Z,0.60
2018-02-25T18:24:58.897Z,0.70
2018-02-25T18:27:26.413Z,0.40
2018-02-25T18:29:53.899Z,0.50
2018-02-25T18:32:22.154Z,0.40
2018-02-25T18:34:49.621Z,0.40
2018-02-25T18:37:17.083Z,0.50
2018-02-25T18:39:45.314Z,0.30
2018-02-25T18:42:12.782Z,0.20
2018-02-25T18:44:40.250Z,0.40
2018-02-25T18:47:07.766Z,0.30
2018-02-25T18:49:35.193Z,0.30
2018-02-25T18:52:03.411Z,0.30
2018-02-25T18:54:30.923Z,0.30
2018-02-25T18:56:59.186Z,0.10
2018-02-25T18:59:26.654Z,0.00
2018-02-25T19:01:54.891Z,0.00
2018-02-25T19:04:22.361Z,-0.10
2018-02-25T19:06:49.844Z,-0.10
2018-02-25T19:09:18.103Z,0.00
2018-02-25T19:11:45.633Z,0.00
2018-02-25T19:14:13.161Z,-0.20
2018-02-25T19:16:40.698Z,-0.20
2018-02-25T19:19:09.786Z,-0.10
2018-02-25T19:21:38.104Z,0.00
2018-02-25T19:24:05.978Z,-0.10
2018-02-25T19:26:33.733Z,0.00
2018-02-25T19:29:01.268Z,0.10
2018-02-25T19:31:28.789Z,-0.10
2018-02-25T19:33:56.612Z,-0.20
2018-02-25T19:36:29.719Z,-0.10
2018-02-25T19:39:03.053Z,-0.10
2018-02-25T19:41:36.890Z,0.10
2018-02-25T19:44:04.424Z,0.00
2018-02-25T19:46:31.934Z,0.00
2018-02-25T19:48:59.423Z,0.10
2018-02-25T19:51:26.970Z,0.00
2018-02-25T19:53:54.491Z,0.00
2018-02-25T19:56:22.129Z,-0.10
2018-02-25T19:58:49.670Z,-0.20
2018-02-25T20:01:17.933Z,-0.20
2018-02-25T20:03:45.433Z,-0.20
2018-02-25T20:06:12.937Z,-0.20
2018-02-25T20:08:40.480Z,-0.30
2018-02-25T20:11:07.959Z,-0.40
2018-02-25T20:13:35.454Z,-0.20
2018-02-25T20:16:02.994Z,-0.30
2018-02-25T20:18:31.269Z,-0.30
2018-02-25T20:21:02.689Z,-0.30
2018-02-25T20:23:30.178Z,-0.30
2018-02-25T20:25:59.166Z,-0.40
2018-02-25T20:28:27.406Z,-0.40
2018-02-25T20:30:55.362Z,-0.50
2018-02-25T20:33:23.774Z,-0.40
2018-02-25T20:35:51.271Z,-0.50
2018-02-25T20:38:18.754Z,-0.50
2018-02-25T20:40:46.267Z,-0.60
2018-02-25T20:43:15.395Z,-0.70
2018-02-25T20:45:42.867Z,-0.80
2018-02-25T20:48:10.410Z,-0.80
2018-02-25T20:50:38.446Z,-0.80
2018-02-25T20:53:06.742Z,-1.00
2018-02-25T20:55:35.002Z,-1.00
2018-02-25T20:58:03.247Z,-0.90
2018-02-25T21:00:31.962Z,-1.00
2018-02-25T21:03:00.264Z,-1.00
2018-02-25T21:05:27.743Z,-1.00
2018-02-25T21:07:56.508Z,-1.00
2018-02-25T21:10:23.990Z,-1.00
2018-02-25T21:12:51.482Z,-1.00
2018-02-25T21:15:18.993Z,-0.90
2018-02-25T21:17:46.468Z,-0.90
2018-02-25T21:20:14.007Z,-0.90
2018-02-25T21:22:41.467Z,-1.00
2018-02-25T21:25:09.003Z,-1.00
2018-02-25T21:27:36.474Z,-1.00
2018-02-25T21:30:04.049Z,-1.10
2018-02-25T21:32:31.527Z,-1.20
2018-02-25T21:34:59.035Z,-1.10
2018-02-25T21:37:26.525Z,-1.10
2018-02-25T21:39:54.055Z,-1.20
2018-02-25T21:42:21.571Z,-1.10
2018-02-25T21:44:49.025Z,-1.20
2018-02-25T21:47:16.821Z,-1.30
2018-02-25T21:49:44.302Z,-1.40
2018-02-25T21:52:11.780Z,-1.30
2018-02-25T21:54:45.028Z,-1.30
2018-02-25T22:00:14.368Z,-1.40
2018-02-25T22:02:47.486Z,-1.50
2018-02-25T22:05:14.947Z,-1.50
2018-02-25T22:07:42.434Z,-1.60
2018-02-25T22:10:10.662Z,-1.50
2018-02-25T22:12:38.092Z,-1.50
2018-02-25T22:15:05.580Z,-1.50
2018-02-25T22:17:33.084Z,-1.70
2018-02-25T22:20:01.332Z,-1.70
2018-02-25T22:22:28.830Z,-1.70
2018-02-25T22:24:56.293Z,-1.70
2018-02-25T22:27:23.761Z,-1.80
2018-02-25T22:29:51.253Z,-1.80
2018-02-25T22:32:18.718Z,-1.90
2018-02-25T22:34:46.174Z,-1.80
2018-02-25T22:37:13.628Z,-1.80
2018-02-25T22:39:41.110Z,-1.80
2018-02-25T22:42:09.378Z,-2.00
2018-02-25T22:44:37.608Z,-2.00
2018-02-25T22:47:06.073Z,-2.00
2018-02-25T22:49:33.536Z,-2.00
2018-02-25T22:52:00.988Z,-2.00
2018-02-25T22:54:28.432Z,-2.00
2018-02-25T22:56:55.912Z,-2.00
2018-02-25T22:59:23.365Z,-2.10
2018-02-25T23:01:50.837Z,-2.00
2018-02-25T23:04:18.313Z,-2.00
2018-02-25T23:06:45.784Z,-2.00
2018-02-25T23:09:13.260Z,-2.00
2018-02-25T23:11:41.465Z,-2.00
2018-02-25T23:14:08.924Z,-2.00
2018-02-25T23:16:36.374Z,-2.10
2018-02-25T23:19:03.834Z,-2.10
2018-02-25T23:21:31.305Z,-2.10
2018-02-25T23:23:58.760Z,-2.10
2018-02-25T23:26:26.200Z,-2.10
2018-02-25T23:28:53.643Z,-2.10
2018-02-25T23:31:21.118Z,-2.00
2018-02-25T23:33:48.608Z,-2.20
2018-02-25T23:36:16.061Z,-2.20
2018-02-25T23:38:43.524Z,-2.30
2018-02-25T23:41:10.969Z,-2.40
2018-02-25T23:43:38.408Z,-2.40
2018-02-25T23:46:05.884Z,-2.40
2018-02-25T23:48:33.327Z,-2.40
2018-02-25T23:51:00.781Z,-2.50
2018-02-25T23:53:28.243Z,-2.40
2018-02-25T23:55:55.707Z,-2.40
2018-02-25T23:58:23.149Z,-2.60
